Time,TemperatureF,DewpointF,PressureIn,WindDirection,WindDirectionDegrees,WindSpeedMPH,WindSpeedGustMPH,Humidity,HourlyPrecipIn,Conditions,Clouds,dailyrainin,SolarRadiationWatts/m^2,SoftwareType,DateUTC
2013-02-26 00:21:00,30.0,26.0,-100.00,North,2,4.0,11.0,84,0.00,,,0.00,0.000000,,2013-02-26 09:21:00,
2013-02-26 00:31:00,30.0,26.0,-100.00,North,2,4.0,11.0,84,0.00,,,0.00,0.000000,,2013-02-26 09:31:00,
2013-02-26 00:43:00,30.0,26.0,-100.00,North,2,4.0,11.0,84,0.00,,,0.00,0.000000,,2013-02-26 09:43:00,
2013-02-26 00:51:00,30.0,26.0,-100.00,North,2,4.0,11.0,84,0.00,,,0.00,0.000000,,2013-02-26 09:51:00,
2013-02-26 01:21:00,30.0,26.0,-100.00,North,1,4.0,10.0,84,0.00,,,0.00,0.000000,,2013-02-26 10:21:00,
2013-02-26 01:31:00,30.0,26.0,-100.00,North,1,4.0,10.0,84,0.00,,,0.00,0.000000,,2013-02-26 10:31:00,
2013-02-26 01:41:00,30.0,26.0,-100.00,North,1,4.0,10.0,84,0.00,,,0.00,0.000000,,2013-02-26 10:41:00,
2013-02-26 01:51:00,30.0,26.0,-100.00,North,1,4.0,10.0,84,0.00,,,0.00,0.000000,,2013-02-26 10:51:00,
2013-02-26 01:52:00,29.0,25.0,-100.00,North,356,2.0,7.0,84,0.00,,,0.00,0.000000,,2013-02-26 10:52:00,
2013-02-26 02:11:00,29.0,25.0,-100.00,North,356,2.0,7.0,84,0.00,,,0.00,0.000000,,2013-02-26 11:11:00,
2013-02-26 02:21:00,29.0,25.0,-100.00,North,356,2.0,7.0,84,0.00,,,0.00,0.000000,,2013-02-26 11:21:00,
2013-02-26 02:31:00,29.0,25.0,-100.00,North,356,2.0,7.0,84,0.00,,,0.00,0.000000,,2013-02-26 11:31:00,
2013-02-26 02:41:00,29.0,25.0,-100.00,North,356,2.0,7.0,84,0.00,,,0.00,0.000000,,2013-02-26 11:41:00,
2013-02-26 02:52:00,29.0,24.0,-100.00,North,359,3.0,9.0,81,0.00,,,0.00,0.000000,,2013-02-26 11:52:00,
2013-02-26 03:11:00,29.0,24.0,-100.00,North,359,3.0,9.0,81,0.00,,,0.00,0.000000,,2013-02-26 12:11:00,
2013-02-26 03:22:00,29.0,24.0,-100.00,North,359,3.0,9.0,81,0.00,,,0.00,0.000000,,2013-02-26 12:22:00,
2013-02-26 03:32:00,29.0,24.0,-100.00,North,359,3.0,9.0,81,0.00,,,0.00,0.000000,,2013-02-26 12:32:00,
2013-02-26 03:42:00,29.0,24.0,-100.00,North,359,3.0,9.0,81,0.00,,,0.00,0.000000,,2013-02-26 12:42:00,
2013-02-26 04:21:00,29.0,23.0,-100.00,North,353,3.0,9.0,78,0.00,,,0.00,0.000000,,2013-02-26 13:21:00,
2013-02-26 04:31:00,29.0,23.0,-100.00,North,353,3.0,9.0,78,0.00,,,0.00,0.000000,,2013-02-26 13:31:00,
2013-02-26 04:42:00,29.0,23.0,-100.00,North,353,3.0,9.0,78,0.00,,,0.00,0.000000,,2013-02-26 13:42:00,
2013-02-26 04:51:00,29.0,23.0,-100.00,North,353,3.0,9.0,78,0.00,,,0.00,0.000000,,2013-02-26 13:51:00,
2013-02-26 04:52:00,28.0,22.0,-100.00,NNE,12,3.0,7.0,78,0.00,,,0.00,0.000000,,2013-02-26 13:52:00,
2013-02-26 05:11:00,28.0,22.0,-100.00,NNE,12,3.0,7.0,78,0.00,,,0.00,0.000000,,2013-02-26 14:11:00,
2013-02-26 05:21:00,28.0,22.0,-100.00,NNE,12,3.0,7.0,78,0.00,,,0.00,0.000000,,2013-02-26 14:21:00,
2013-02-26 05:31:00,28.0,22.0,-100.00,NNE,12,3.0,7.0,78,0.00,,,0.00,0.000000,,2013-02-26 14:31:00,
2013-02-26 05:41:00,28.0,22.0,-100.00,NNE,12,3.0,7.0,78,0.00,,,0.00,0.000000,,2013-02-26 14:41:00,
2013-02-26 06:11:00,29.0,22.0,-100.00,NNE,14,4.0,13.0,75,0.00,,,0.00,0.000000,,2013-02-26 15:11:00,
2013-02-26 06:21:00,29.0,22.0,-100.00,NNE,14,4.0,13.0,75,0.00,,,0.00,0.000000,,2013-02-26 15:21:00,
2013-02-26 06:32:00,29.0,22.0,-100.00,NNE,14,4.0,13.0,75,0.00,,,0.00,0.000000,,2013-02-26 15:32:00,
2013-02-26 06:41:00,29.0,22.0,-100.00,NNE,14,4.0,13.0,75,0.00,,,0.00,0.000000,,2013-02-26 15:41:00,
2013-02-26 06:51:00,29.0,22.0,-100.00,NNE,14,4.0,13.0,75,0.00,,,0.00,0.000000,,2013-02-26 15:51:00,
2013-02-26 07:22:00,29.0,21.0,-100.00,North,9,4.0,12.0,72,0.00,,,0.00,0.000000,,2013-02-26 16:22:00,
2013-02-26 07:31:00,29.0,21.0,-100.00,North,9,4.0,12.0,72,0.00,,,0.00,0.000000,,2013-02-26 16:31:00,
2013-02-26 07:41:00,29.0,21.0,-100.00,North,9,4.0,12.0,72,0.00,,,0.00,0.000000,,2013-02-26 16:41:00,
2013-02-26 07:51:00,29.0,21.0,-100.00,North,9,4.0,12.0,72,0.00,,,0.00,0.000000,,2013-02-26 16:51:00,
2013-02-26 07:52:00,29.0,20.0,-100.00,North,4,4.0,11.0,70,0.00,,,0.00,0.000000,,2013-02-26 16:52:00,
2013-02-26 08:11:00,29.0,20.0,-100.00,North,4,4.0,11.0,70,0.00,,,0.00,0.000000,,2013-02-26 17:11:00,
2013-02-26 08:21:00,29.0,20.0,-100.00,North,4,4.0,11.0,70,0.00,,,0.00,0.000000,,2013-02-26 17:21:00,
2013-02-26 08:32:00,29.0,20.0,-100.00,North,4,4.0,11.0,70,0.00,,,0.00,0.000000,,2013-02-26 17:32:00,
2013-02-26 08:41:00,29.0,20.0,-100.00,North,4,4.0,11.0,70,0.00,,,0.00,0.000000,,2013-02-26 17:41:00,
2013-02-26 10:11:00,29.0,20.0,-100.00,North,6,4.0,11.0,70,-99.99,,,0.00,24.000000,,2013-02-26 19:11:00,
2013-02-26 10:22:00,29.0,20.0,-100.00,North,6,4.0,11.0,70,-99.99,,,0.00,24.000000,,2013-02-26 19:22:00,
2013-02-26 10:31:00,29.0,20.0,-100.00,North,6,4.0,11.0,70,-99.99,,,0.00,24.000000,,2013-02-26 19:31:00,
2013-02-26 10:41:00,29.0,20.0,-100.00,North,6,4.0,11.0,70,-99.99,,,0.00,24.000000,,2013-02-26 19:41:00,
2013-02-26 10:51:00,29.0,20.0,-100.00,North,6,4.0,11.0,70,-99.99,,,0.00,24.000000,,2013-02-26 19:51:00,
2013-02-26 11:21:00,30.0,20.0,-100.00,North,10,3.0,14.0,66,0.00,,,0.00,60.000000,,2013-02-26 20:21:00,
2013-02-26 11:31:00,30.0,20.0,-100.00,North,10,3.0,14.0,66,0.00,,,0.00,60.000000,,2013-02-26 20:31:00,
2013-02-26 11:41:00,30.0,20.0,-100.00,North,10,3.0,14.0,66,0.00,,,0.00,60.000000,,2013-02-26 20:41:00,
2013-02-26 11:51:00,30.0,20.0,-100.00,North,10,3.0,14.0,66,0.00,,,0.00,60.000000,,2013-02-26 20:51:00,
2013-02-26 13:21:00,36.0,21.0,-100.00,NNE,23,6.0,13.0,54,-99.99,,,0.00,165.000000,,2013-02-26 22:21:00,
2013-02-26 13:31:00,36.0,21.0,-100.00,NNE,23,6.0,13.0,54,-99.99,,,0.00,165.000000,,2013-02-26 22:31:00,
2013-02-26 13:41:00,36.0,21.0,-100.00,NNE,23,6.0,13.0,54,-99.99,,,0.00,165.000000,,2013-02-26 22:41:00,
2013-02-26 13:51:00,36.0,21.0,-100.00,NNE,23,6.0,13.0,54,-99.99,,,0.00,165.000000,,2013-02-26 22:51:00,
2013-02-26 14:21:00,37.0,21.0,-100.00,NNE,15,5.0,11.0,51,0.00,,,0.00,161.000000,,2013-02-26 23:21:00,
2013-02-26 14:31:00,37.0,21.0,-100.00,NNE,15,5.0,11.0,51,0.00,,,0.00,161.000000,,2013-02-26 23:31:00,
2013-02-26 14:41:00,37.0,21.0,-100.00,NNE,15,5.0,11.0,51,0.00,,,0.00,161.000000,,2013-02-26 23:41:00,
2013-02-26 14:51:00,37.0,21.0,-100.00,NNE,15,5.0,11.0,51,0.00,,,0.00,161.000000,,2013-02-26 23:51:00,
2013-02-26 15:11:00,39.0,22.0,-100.00,North,5,4.0,11.0,50,0.00,,,0.00,158.000000,,2013-02-27 00:11:00,
2013-02-26 15:21:00,39.0,22.0,-100.00,North,5,4.0,11.0,50,0.00,,,0.00,158.000000,,2013-02-27 00:21:00,
2013-02-26 15:31:00,39.0,22.0,-100.00,North,5,4.0,11.0,50,0.00,,,0.00,158.000000,,2013-02-27 00:31:00,
2013-02-26 15:41:00,39.0,22.0,-100.00,North,5,4.0,11.0,50,0.00,,,0.00,158.000000,,2013-02-27 00:41:00,
2013-02-26 15:51:00,39.0,22.0,-100.00,North,5,4.0,11.0,50,0.00,,,0.00,158.000000,,2013-02-27 00:51:00,
2013-02-26 16:21:00,38.0,22.0,-100.00,NNW,346,3.0,14.0,52,0.00,,,0.00,97.000000,,2013-02-27 01:21:00,
2013-02-26 16:31:00,38.0,22.0,-100.00,NNW,346,3.0,14.0,52,0.00,,,0.00,97.000000,,2013-02-27 01:31:00,
2013-02-26 16:41:00,38.0,22.0,-100.00,NNW,346,3.0,14.0,52,0.00,,,0.00,97.000000,,2013-02-27 01:41:00,
2013-02-26 16:51:00,38.0,22.0,-100.00,NNW,346,3.0,14.0,52,0.00,,,0.00,97.000000,,2013-02-27 01:51:00,
2013-02-26 16:52:00,35.0,23.0,-100.00,WNW,290,1.0,6.0,62,0.00,,,0.00,44.000000,,2013-02-27 01:52:00,
2013-02-26 17:14:00,35.0,23.0,-100.00,WNW,290,1.0,6.0,62,0.00,,,0.00,44.000000,,2013-02-27 02:14:00,
2013-02-26 17:22:00,35.0,23.0,-100.00,WNW,290,1.0,6.0,62,0.00,,,0.00,44.000000,,2013-02-27 02:22:00,
2013-02-26 17:32:00,35.0,23.0,-100.00,WNW,290,1.0,6.0,62,0.00,,,0.00,44.000000,,2013-02-27 02:32:00,
2013-02-26 17:41:00,35.0,23.0,-100.00,WNW,290,1.0,6.0,62,0.00,,,0.00,44.000000,,2013-02-27 02:41:00,
2013-02-26 18:21:00,33.0,20.0,-100.00,NNW,332,2.0,7.0,59,0.00,,,0.00,45.000000,,2013-02-27 03:21:00,
2013-02-26 18:32:00,33.0,20.0,-100.00,NNW,332,2.0,7.0,59,0.00,,,0.00,45.000000,,2013-02-27 03:32:00,
2013-02-26 18:41:00,33.0,20.0,-100.00,NNW,332,2.0,7.0,59,0.00,,,0.00,45.000000,,2013-02-27 03:41:00,
2013-02-26 18:51:00,33.0,20.0,-100.00,NNW,332,2.0,7.0,59,0.00,,,0.00,45.000000,,2013-02-27 03:51:00,
2013-02-26 19:11:00,30.0,20.0,-100.00,NNW,338,1.0,5.0,66,0.00,,,0.00,5.000000,,2013-02-27 04:11:00,
2013-02-26 19:21:00,30.0,20.0,-100.00,NNW,338,1.0,5.0,66,0.00,,,0.00,5.000000,,2013-02-27 04:21:00,
2013-02-26 19:31:00,30.0,20.0,-100.00,NNW,338,1.0,5.0,66,0.00,,,0.00,5.000000,,2013-02-27 04:31:00,
2013-02-26 19:41:00,30.0,20.0,-100.00,NNW,338,1.0,5.0,66,0.00,,,0.00,5.000000,,2013-02-27 04:41:00,
2013-02-26 19:51:00,30.0,20.0,-100.00,NNW,338,1.0,5.0,66,0.00,,,0.00,5.000000,,2013-02-27 04:51:00,
2013-02-26 19:52:00,30.0,23.0,-100.00,North,6,4.0,11.0,75,0.00,,,0.00,0.000000,,2013-02-27 04:52:00,
2013-02-26 20:22:00,30.0,23.0,-100.00,North,6,4.0,11.0,75,0.00,,,0.00,0.000000,,2013-02-27 05:22:00,
2013-02-26 20:32:00,30.0,23.0,-100.00,North,6,4.0,11.0,75,0.00,,,0.00,0.000000,,2013-02-27 05:32:00,
2013-02-26 20:41:00,30.0,23.0,-100.00,North,6,4.0,11.0,75,0.00,,,0.00,0.000000,,2013-02-27 05:41:00,
2013-02-26 21:11:00,30.0,23.0,-100.00,North,4,3.0,10.0,75,0.00,,,0.00,0.000000,,2013-02-27 06:11:00,
2013-02-26 21:21:00,30.0,23.0,-100.00,North,4,3.0,10.0,75,0.00,,,0.00,0.000000,,2013-02-27 06:21:00,
2013-02-26 21:32:00,30.0,23.0,-100.00,North,4,3.0,10.0,75,0.00,,,0.00,0.000000,,2013-02-27 06:32:00,
2013-02-26 21:41:00,30.0,23.0,-100.00,North,4,3.0,10.0,75,0.00,,,0.00,0.000000,,2013-02-27 06:41:00,
2013-02-26 21:51:00,30.0,23.0,-100.00,North,4,3.0,10.0,75,0.00,,,0.00,0.000000,,2013-02-27 06:51:00,
2013-02-26 22:12:00,29.0,21.0,-100.00,NNE,16,4.0,10.0,72,0.00,,,0.00,0.000000,,2013-02-27 07:12:00,
2013-02-26 22:21:00,29.0,21.0,-100.00,NNE,16,4.0,10.0,72,0.00,,,0.00,0.000000,,2013-02-27 07:21:00,
2013-02-26 22:31:00,29.0,21.0,-100.00,NNE,16,4.0,10.0,72,0.00,,,0.00,0.000000,,2013-02-27 07:31:00,
2013-02-26 22:41:00,29.0,21.0,-100.00,NNE,16,4.0,10.0,72,0.00,,,0.00,0.000000,,2013-02-27 07:41:00,
2013-02-26 22:51:00,29.0,21.0,-100.00,NNE,16,4.0,10.0,72,0.00,,,0.00,0.000000,,2013-02-27 07:51:00,
2013-02-26 22:52:00,28.0,22.0,-100.00,NNE,12,3.0,9.0,77,0.00,,,0.00,0.000000,,2013-02-27 07:52:00,
2013-02-26 23:11:00,28.0,22.0,-100.00,NNE,12,3.0,9.0,77,0.00,,,0.00,0.000000,,2013-02-27 08:11:00,
2013-02-26 23:21:00,28.0,22.0,-100.00,NNE,12,3.0,9.0,77,0.00,,,0.00,0.000000,,2013-02-27 08:21:00,
2013-02-26 23:31:00,28.0,22.0,-100.00,NNE,12,3.0,9.0,77,0.00,,,0.00,0.000000,,2013-02-27 08:31:00,
2013-02-26 23:41:00,28.0,22.0,-100.00,NNE,12,3.0,9.0,77,0.00,,,0.00,0.000000,,2013-02-27 08:41:00,